Kennett, Missouri
Current Conditions -  °F | °C
As of 8:53 PM on Saturday 20 Dec 2014 (Local Time) from KHKA Reporting Station
Clear Clear  
Wind Chill: -1°   Ceiling: Unl
Heat Index:   Visibility: 9mi
Dew Point:   Wind: 6mph
Humidity: 89%   Direction: 50°NE
Pressure: 30.27"   Gusts: NA
Location:  36.24°N, 90.05°W
Report Text: KHKA 210253Z AUTO 05005KT 9SM CLR 02/00 A3027 RMK AO2 SLP252 T00170000 51005
Loading
Personal Weather Stations






























Interactive Weather Map New forecast layout! Learn more

10-Day Weather Forecast

Advertisements
Track Severe Weather on mobile